createdAt,value
2022-09-16T00:01:25.270Z,15.40
2022-09-16T00:03:57.089Z,15.00
2022-09-16T00:06:29.242Z,15.00
2022-09-16T00:09:01.105Z,15.30
2022-09-16T00:11:34.904Z,19.00
2022-09-16T00:14:05.655Z,12.60
2022-09-16T00:16:36.803Z,14.60
2022-09-16T00:19:07.215Z,10.90
2022-09-16T00:21:38.059Z,15.80
2022-09-16T00:24:08.796Z,18.90
2022-09-16T00:26:40.082Z,15.00
2022-09-16T00:29:10.413Z,13.20
2022-09-16T00:31:41.207Z,14.40
2022-09-16T00:34:11.435Z,15.10
2022-09-16T00:36:42.084Z,15.40
2022-09-16T00:39:12.310Z,15.00
2022-09-16T00:41:43.526Z,13.10
2022-09-16T00:44:27.251Z,14.00
2022-09-16T00:46:57.950Z,16.70
2022-09-16T00:49:32.054Z,15.10
2022-09-16T00:52:04.169Z,13.60
2022-09-16T00:54:35.804Z,12.60
2022-09-16T00:57:07.138Z,15.60
2022-09-16T00:59:38.555Z,18.60
2022-09-16T01:02:12.730Z,13.80
2022-09-16T01:04:45.397Z,15.40
2022-09-16T01:07:16.439Z,12.20
2022-09-16T01:09:46.957Z,25.70
2022-09-16T01:12:17.606Z,19.10
2022-09-16T01:14:58.461Z,15.40
2022-09-16T01:17:36.362Z,13.70
2022-09-16T01:20:19.966Z,12.90
2022-09-16T01:23:00.769Z,13.40
2022-09-16T01:25:35.706Z,12.80
2022-09-16T01:28:23.441Z,12.80
2022-09-16T01:31:07.319Z,14.20
2022-09-16T01:33:42.618Z,15.70
2022-09-16T01:36:19.776Z,13.80
2022-09-16T01:38:57.125Z,14.40
2022-09-16T01:41:31.380Z,17.60
2022-09-16T01:44:04.786Z,13.60
2022-09-16T01:46:40.812Z,15.50
2022-09-16T01:49:16.665Z,18.20
2022-09-16T01:51:50.209Z,16.80
2022-09-16T01:54:25.039Z,15.10
2022-09-16T01:56:59.150Z,12.80
2022-09-16T01:59:33.838Z,14.40
2022-09-16T02:02:06.027Z,18.00
2022-09-16T02:04:39.135Z,14.40
2022-09-16T02:07:11.579Z,14.30
2022-09-16T02:09:43.871Z,19.30
2022-09-16T02:12:17.365Z,17.80
2022-09-16T02:14:50.661Z,14.30
2022-09-16T02:17:23.647Z,16.10
2022-09-16T02:19:57.497Z,12.80
2022-09-16T02:22:31.945Z,13.60
2022-09-16T02:25:04.551Z,12.20
2022-09-16T02:27:36.461Z,17.10
2022-09-16T02:30:09.189Z,16.30
2022-09-16T02:32:41.359Z,15.00
2022-09-16T02:35:13.939Z,15.40
2022-09-16T02:37:46.517Z,13.70
2022-09-16T02:40:18.967Z,15.00
2022-09-16T02:42:49.824Z,13.30
2022-09-16T02:47:55.508Z,15.60
2022-09-16T02:50:28.842Z,16.20
2022-09-16T02:53:01.468Z,17.10
2022-09-16T02:55:37.838Z,14.90
2022-09-16T02:58:08.774Z,16.10
2022-09-16T03:00:41.239Z,19.70
2022-09-16T03:03:11.754Z,13.70
2022-09-16T03:05:59.467Z,15.00
2022-09-16T03:08:30.303Z,15.40
2022-09-16T03:11:04.664Z,14.30
2022-09-16T03:13:40.965Z,16.70
2022-09-16T03:16:14.326Z,12.80
2022-09-16T03:21:17.101Z,16.70
2022-09-16T03:23:50.851Z,16.30
2022-09-16T03:26:24.238Z,13.30
2022-09-16T03:31:28.638Z,15.20
2022-09-16T03:34:05.895Z,13.70
2022-09-16T03:36:38.293Z,14.90
2022-09-16T03:39:09.621Z,15.40
2022-09-16T03:41:40.757Z,13.70
2022-09-16T03:44:11.213Z,14.20
2022-09-16T03:46:42.322Z,13.70
2022-09-16T03:49:13.401Z,16.10
2022-09-16T03:51:44.638Z,18.00
2022-09-16T03:54:14.965Z,12.90
2022-09-16T03:56:46.173Z,12.50
2022-09-16T03:59:17.199Z,17.20
2022-09-16T04:01:48.307Z,17.00
2022-09-16T04:04:18.816Z,15.00
2022-09-16T04:06:51.339Z,13.90
2022-09-16T04:09:23.556Z,11.80
2022-09-16T04:11:54.700Z,14.20
2022-09-16T04:14:29.546Z,12.90
2022-09-16T04:17:01.861Z,15.50
2022-09-16T04:19:33.248Z,12.00
2022-09-16T04:22:04.091Z,13.60
2022-09-16T04:24:34.316Z,13.90
2022-09-16T04:27:05.513Z,15.10
2022-09-16T04:29:35.696Z,14.50
2022-09-16T04:32:06.674Z,11.70
2022-09-16T04:34:36.935Z,18.10
2022-09-16T04:47:10.098Z,16.00
2022-09-16T04:49:40.720Z,15.30
2022-09-16T04:52:11.964Z,13.10
2022-09-16T04:54:42.506Z,13.00
2022-09-16T04:57:13.019Z,18.70
2022-09-16T04:59:43.445Z,13.40
2022-09-16T05:02:14.789Z,14.60
2022-09-16T05:04:45.329Z,12.80
2022-09-16T05:07:16.528Z,14.90
2022-09-16T05:09:47.058Z,14.30
2022-09-16T05:12:18.223Z,13.10
2022-09-16T05:14:48.764Z,13.00
2022-09-16T05:17:39.808Z,15.50
2022-09-16T05:20:10.897Z,13.90
2022-09-16T05:22:41.862Z,15.30
2022-09-16T05:25:12.278Z,15.30
2022-09-16T05:27:43.057Z,17.30
2022-09-16T05:30:15.313Z,12.90
2022-09-16T05:32:46.364Z,13.40
2022-09-16T05:35:17.058Z,14.50
2022-09-16T05:37:47.793Z,19.20
2022-09-16T05:40:20.523Z,14.20
2022-09-16T05:42:51.659Z,16.40
2022-09-16T05:45:26.599Z,16.90
2022-09-16T05:47:59.323Z,12.80
2022-09-16T05:50:30.365Z,14.60
2022-09-16T05:53:01.108Z,14.30
2022-09-16T05:55:31.627Z,18.40
2022-09-16T05:58:02.165Z,15.80
2022-09-16T06:00:32.951Z,17.10
2022-09-16T06:03:03.789Z,14.30
2022-09-16T06:05:35.072Z,15.60
2022-09-16T06:08:05.849Z,16.90
2022-09-16T06:10:39.996Z,13.50
2022-09-16T06:13:10.701Z,12.60
2022-09-16T06:15:41.647Z,12.10
2022-09-16T06:18:16.477Z,11.50
2022-09-16T06:20:47.465Z,13.40
2022-09-16T06:23:18.966Z,13.80
2022-09-16T06:25:50.053Z,9.80
2022-09-16T06:28:21.545Z,11.80
2022-09-16T06:31:01.930Z,15.30
2022-09-16T06:33:32.811Z,10.80
2022-09-16T06:36:05.790Z,12.30
2022-09-16T06:38:37.262Z,9.80
2022-09-16T06:41:08.724Z,10.80
2022-09-16T06:43:39.867Z,11.30
2022-09-16T06:46:13.744Z,9.70
2022-09-16T06:48:45.528Z,10.20
2022-09-16T06:51:17.141Z,10.60
2022-09-16T06:53:48.044Z,10.50
2022-09-16T06:56:19.346Z,11.80
2022-09-16T06:58:50.547Z,9.40
2022-09-16T07:01:21.584Z,6.50
2022-09-16T07:03:57.060Z,10.60
2022-09-16T07:09:20.536Z,9.00
2022-09-16T07:11:51.375Z,8.30
2022-09-16T07:14:22.318Z,7.80
2022-09-16T07:16:53.107Z,10.80
2022-09-16T07:19:24.306Z,7.70
2022-09-16T07:21:54.814Z,7.60
2022-09-16T07:24:25.472Z,14.20
2022-09-16T07:26:56.181Z,10.20
2022-09-16T07:29:27.883Z,6.50
2022-09-16T07:31:58.412Z,7.60
2022-09-16T07:34:29.169Z,7.10
2022-09-16T07:37:00.352Z,10.70
2022-09-16T07:39:31.154Z,6.10
2022-09-16T07:42:05.903Z,5.90
2022-09-16T07:44:36.709Z,7.60
2022-09-16T07:47:07.383Z,6.80
2022-09-16T07:49:39.137Z,9.10
2022-09-16T07:52:09.656Z,8.40
2022-09-16T07:54:40.293Z,9.90
2022-09-16T07:57:10.820Z,9.00
2022-09-16T07:59:41.446Z,6.20
2022-09-16T08:02:12.009Z,5.80
2022-09-16T08:04:42.709Z,8.00
2022-09-16T08:07:13.545Z,6.60
2022-09-16T08:09:48.602Z,7.40
2022-09-16T08:12:24.321Z,5.60
2022-09-16T08:14:55.610Z,9.90
2022-09-16T08:17:27.159Z,9.20
2022-09-16T08:19:58.793Z,10.90
2022-09-16T08:22:30.135Z,8.50
2022-09-16T08:25:01.347Z,7.20
2022-09-16T08:27:31.905Z,8.90
2022-09-16T08:30:02.978Z,6.70
2022-09-16T08:32:33.373Z,7.50
2022-09-16T08:35:04.162Z,9.50
2022-09-16T08:37:36.074Z,8.90
2022-09-16T08:40:07.633Z,6.60
2022-09-16T08:42:47.377Z,9.30
2022-09-16T08:45:22.124Z,8.70
2022-09-16T08:48:03.473Z,8.10
2022-09-16T08:50:37.301Z,8.00
2022-09-16T08:53:13.031Z,7.50
2022-09-16T08:55:47.203Z,9.50
2022-09-16T08:58:18.909Z,8.20
2022-09-16T09:00:54.821Z,10.10
2022-09-16T09:03:30.033Z,10.20
2022-09-16T09:06:16.295Z,8.30
2022-09-16T09:08:51.340Z,11.50
2022-09-16T09:11:24.720Z,6.90
2022-09-16T09:14:00.987Z,7.60
2022-09-16T09:16:37.632Z,8.90
2022-09-16T09:19:25.677Z,10.00
2022-09-16T09:22:01.453Z,8.60
2022-09-16T09:24:40.928Z,8.50
2022-09-16T09:27:14.584Z,7.50
2022-09-16T09:29:54.841Z,5.60
2022-09-16T09:32:29.131Z,7.80
2022-09-16T09:35:03.744Z,6.50
2022-09-16T09:37:39.610Z,7.40
2022-09-16T09:40:13.395Z,8.60
2022-09-16T09:42:46.446Z,6.70
2022-09-16T09:45:20.204Z,6.80
2022-09-16T09:47:52.994Z,6.80
2022-09-16T09:50:27.840Z,8.00
2022-09-16T09:53:00.622Z,13.00
2022-09-16T09:55:33.434Z,6.30
2022-09-16T09:58:06.759Z,7.90
2022-09-16T10:03:12.281Z,6.40
2022-09-16T10:05:43.605Z,7.90
2022-09-16T10:08:18.578Z,7.10
2022-09-16T10:10:51.833Z,5.30
2022-09-16T10:13:23.946Z,6.90
2022-09-16T10:15:56.796Z,8.60
2022-09-16T10:18:30.113Z,7.10
2022-09-16T10:21:03.451Z,7.30
2022-09-16T10:23:34.609Z,10.50
2022-09-16T10:26:16.896Z,7.20
2022-09-16T10:28:56.216Z,6.40
2022-09-16T10:31:32.012Z,6.50
2022-09-16T10:34:06.826Z,5.10
2022-09-16T10:36:37.256Z,6.50
2022-09-16T10:39:08.308Z,4.80
2022-09-16T10:41:42.742Z,6.50
2022-09-16T10:44:18.573Z,5.60
2022-09-16T10:46:54.122Z,5.80
2022-09-16T10:49:27.712Z,6.70
2022-09-16T10:52:08.055Z,4.70
2022-09-16T10:54:38.801Z,7.70
2022-09-16T10:57:22.149Z,6.50
2022-09-16T11:00:03.208Z,7.90
2022-09-16T11:02:44.600Z,7.40
2022-09-16T11:05:21.639Z,6.20
2022-09-16T11:07:59.645Z,6.10
2022-09-16T11:10:33.988Z,6.20
2022-09-16T11:13:13.231Z,6.20
2022-09-16T11:15:49.047Z,6.40
2022-09-16T11:18:25.991Z,6.10
2022-09-16T11:21:07.646Z,6.40
2022-09-16T11:23:50.665Z,6.80
2022-09-16T11:26:26.428Z,6.40
2022-09-16T11:29:03.757Z,9.00
2022-09-16T11:31:40.551Z,9.80
2022-09-16T11:34:19.310Z,6.80
2022-09-16T11:36:56.043Z,8.60
2022-09-16T11:39:37.089Z,5.30
2022-09-16T11:42:12.056Z,6.50
2022-09-16T11:44:46.501Z,8.20
2022-09-16T11:47:23.298Z,5.20
2022-09-16T11:50:03.544Z,7.00
2022-09-16T11:52:44.246Z,5.70
2022-09-16T11:55:23.085Z,4.30
2022-09-16T11:57:56.425Z,4.80
2022-09-16T12:00:27.781Z,5.80
2022-09-16T12:03:01.990Z,6.30
2022-09-16T12:05:36.104Z,5.90
2022-09-16T12:08:12.361Z,6.70
2022-09-16T12:10:45.138Z,8.10
2022-09-16T12:13:18.028Z,8.30
2022-09-16T12:15:50.193Z,4.60
2022-09-16T12:18:22.052Z,8.20
2022-09-16T12:20:54.705Z,4.10
2022-09-16T12:23:29.161Z,6.00
2022-09-16T12:26:05.867Z,5.00
2022-09-16T12:28:38.088Z,4.90
2022-09-16T12:31:13.848Z,4.40
2022-09-16T12:33:49.073Z,4.50
2022-09-16T12:36:23.773Z,4.40
2022-09-16T12:38:55.846Z,6.60
2022-09-16T12:41:36.904Z,5.90
2022-09-16T12:44:34.132Z,3.70
2022-09-16T12:47:24.485Z,3.60
2022-09-16T12:50:13.886Z,4.30
2022-09-16T12:52:55.005Z,3.70
2022-09-16T12:55:32.940Z,4.90
2022-09-16T12:58:15.464Z,5.40
2022-09-16T13:00:51.936Z,4.50
2022-09-16T13:03:24.357Z,3.60
2022-09-16T13:05:57.556Z,5.20
2022-09-16T13:08:29.471Z,6.20
2022-09-16T13:11:30.305Z,3.90
2022-09-16T13:13:53.870Z,3.50
2022-09-16T13:16:32.331Z,5.10
2022-09-16T13:19:11.109Z,4.60
2022-09-16T13:21:45.312Z,4.10
2022-09-16T13:24:19.145Z,7.20
2022-09-16T13:26:49.531Z,4.30
2022-09-16T13:29:28.942Z,4.80
2022-09-16T13:31:59.571Z,5.40
2022-09-16T13:34:31.766Z,5.00
2022-09-16T13:37:02.193Z,5.20
2022-09-16T13:39:34.356Z,4.80
2022-09-16T13:42:20.764Z,4.30
2022-09-16T13:44:53.138Z,8.30
2022-09-16T13:47:34.483Z,4.80
2022-09-16T13:50:09.274Z,5.40
2022-09-16T13:52:43.150Z,4.80
2022-09-16T13:55:21.927Z,5.40
2022-09-16T13:57:55.865Z,6.00
2022-09-16T14:00:32.478Z,5.50
2022-09-16T14:03:23.728Z,4.70
2022-09-16T14:06:04.623Z,4.10
2022-09-16T14:08:38.873Z,7.50
2022-09-16T14:11:15.603Z,8.00
2022-09-16T14:13:48.056Z,8.60
2022-09-16T14:16:20.990Z,5.80
2022-09-16T14:18:54.990Z,4.60
2022-09-16T14:21:26.400Z,6.90
2022-09-16T14:34:01.903Z,5.00
2022-09-16T14:36:34.213Z,7.70
2022-09-16T14:39:11.376Z,6.20
2022-09-16T14:41:44.579Z,5.20
2022-09-16T14:44:23.069Z,5.00
2022-09-16T14:47:04.637Z,6.30
2022-09-16T14:49:39.824Z,7.20
2022-09-16T14:52:18.563Z,7.10
2022-09-16T14:54:50.816Z,6.80
2022-09-16T14:57:23.364Z,5.10
2022-09-16T14:59:55.667Z,8.90
2022-09-16T15:02:28.303Z,6.20
2022-09-16T15:05:01.053Z,8.00
2022-09-16T15:07:34.205Z,6.80
2022-09-16T15:10:07.545Z,6.60
2022-09-16T15:12:40.393Z,6.80
2022-09-16T15:17:40.360Z,5.10
2022-09-16T15:20:22.311Z,8.10
2022-09-16T15:22:53.896Z,6.10
2022-09-16T15:25:26.060Z,6.50
2022-09-16T15:28:04.648Z,6.20
2022-09-16T15:30:35.989Z,7.80
2022-09-16T15:33:23.557Z,7.50
2022-09-16T15:35:54.944Z,7.00
2022-09-16T15:38:26.023Z,5.90
2022-09-16T15:41:04.557Z,5.90
2022-09-16T15:43:40.244Z,5.50
2022-09-16T15:46:18.491Z,7.50
2022-09-16T15:48:50.040Z,7.70
2022-09-16T15:51:29.229Z,6.40
2022-09-16T15:54:03.558Z,6.40
2022-09-16T15:56:35.961Z,7.10
2022-09-16T15:59:08.033Z,6.30
2022-09-16T16:01:42.181Z,5.10
2022-09-16T16:04:14.486Z,5.60
2022-09-16T16:06:49.463Z,4.90
2022-09-16T16:09:45.666Z,4.50
2022-09-16T16:12:18.730Z,8.80
2022-09-16T16:17:21.282Z,8.60
2022-09-16T16:19:52.255Z,6.90
2022-09-16T16:22:23.523Z,10.70
2022-09-16T16:24:55.184Z,12.50
2022-09-16T16:27:26.573Z,7.70
2022-09-16T16:29:57.128Z,6.20
2022-09-16T16:32:28.371Z,7.90
2022-09-16T16:34:59.518Z,6.90
2022-09-16T16:37:46.927Z,9.70
2022-09-16T16:40:18.070Z,6.20
2022-09-16T16:42:49.150Z,7.20
2022-09-16T16:45:19.789Z,5.80
2022-09-16T16:47:50.871Z,6.30
2022-09-16T16:50:21.762Z,7.70
2022-09-16T16:52:55.887Z,6.70
2022-09-16T16:55:26.713Z,7.20
2022-09-16T16:57:57.569Z,7.90
2022-09-16T17:00:28.707Z,6.60
2022-09-16T17:02:59.387Z,10.40
2022-09-16T17:05:31.125Z,6.60
2022-09-16T17:08:01.761Z,12.60
2022-09-16T17:10:32.445Z,13.10
2022-09-16T17:13:03.790Z,7.30
2022-09-16T17:15:34.884Z,7.00
2022-09-16T17:18:05.688Z,6.40
2022-09-16T17:20:36.814Z,9.30
2022-09-16T17:23:07.824Z,7.90
2022-09-16T17:25:38.404Z,8.20
2022-09-16T17:28:10.997Z,6.30
2022-09-16T17:30:45.417Z,6.80
2022-09-16T17:33:16.533Z,8.60
2022-09-16T17:35:48.297Z,8.50
2022-09-16T17:38:19.526Z,6.70
2022-09-16T17:40:49.846Z,6.60
2022-09-16T17:43:20.358Z,7.90
2022-09-16T17:45:53.708Z,6.50
2022-09-16T17:48:25.423Z,7.10
2022-09-16T17:50:56.274Z,9.40
2022-09-16T17:53:27.105Z,7.50
2022-09-16T17:56:04.264Z,7.70
2022-09-16T17:58:35.171Z,9.00
2022-09-16T18:01:13.993Z,7.20
2022-09-16T18:03:45.190Z,6.20
2022-09-16T18:06:16.571Z,10.10
2022-09-16T18:08:47.472Z,7.50
2022-09-16T18:11:18.607Z,8.30
2022-09-16T18:13:50.989Z,8.20
2022-09-16T18:16:24.830Z,7.80
2022-09-16T18:18:56.771Z,7.20
2022-09-16T18:21:27.563Z,11.00
2022-09-16T18:23:59.595Z,8.60
2022-09-16T18:35:22.251Z,9.90
2022-09-16T18:37:53.477Z,13.90
2022-09-16T18:40:24.428Z,10.80
2022-09-16T18:42:55.883Z,10.10
2022-09-16T18:45:27.996Z,6.30
2022-09-16T18:47:59.594Z,7.90
2022-09-16T18:50:30.380Z,15.80
2022-09-16T18:53:00.710Z,7.80
2022-09-16T18:55:31.284Z,8.80
2022-09-16T18:58:01.872Z,11.80
2022-09-16T19:00:32.504Z,8.30
2022-09-16T19:03:02.943Z,9.60
2022-09-16T19:05:33.600Z,10.10
2022-09-16T19:08:04.204Z,9.50
2022-09-16T19:10:34.884Z,10.70
2022-09-16T19:13:07.027Z,7.70
2022-09-16T19:15:37.876Z,9.10
2022-09-16T19:18:08.935Z,7.70
2022-09-16T19:20:43.083Z,9.70
2022-09-16T19:23:13.552Z,10.30
2022-09-16T19:25:45.409Z,7.90
2022-09-16T19:28:15.833Z,9.10
2022-09-16T19:30:46.620Z,10.40
2022-09-16T19:33:19.118Z,9.90
2022-09-16T19:35:49.770Z,10.50
2022-09-16T19:38:23.684Z,12.30
2022-09-16T19:41:01.181Z,8.60
2022-09-16T19:43:32.220Z,7.40
2022-09-16T19:46:06.697Z,11.70
2022-09-16T19:48:39.000Z,9.40
2022-09-16T19:51:10.614Z,9.80
2022-09-16T19:53:42.494Z,9.10
2022-09-16T19:56:14.242Z,9.60
2022-09-16T19:58:44.703Z,9.10
2022-09-16T20:01:16.239Z,9.90
2022-09-16T20:03:49.648Z,9.90
2022-09-16T20:06:21.255Z,10.20
2022-09-16T20:08:54.142Z,8.80
2022-09-16T20:11:26.803Z,9.30
2022-09-16T20:13:58.047Z,8.60
2022-09-16T20:16:31.090Z,10.90
2022-09-16T20:19:01.701Z,10.10
2022-09-16T20:21:35.299Z,10.30
2022-09-16T20:24:07.037Z,10.60
2022-09-16T20:26:37.921Z,9.60
2022-09-16T20:29:08.726Z,10.20
2022-09-16T20:31:39.378Z,12.00
2022-09-16T20:34:11.391Z,9.00
2022-09-16T20:36:42.281Z,10.90
2022-09-16T20:39:13.700Z,12.10
2022-09-16T20:41:45.895Z,13.70
2022-09-16T20:44:16.991Z,11.90
2022-09-16T20:46:49.319Z,11.40
2022-09-16T20:49:20.966Z,12.70
2022-09-16T20:51:52.056Z,12.40
2022-09-16T20:54:22.665Z,11.30
2022-09-16T20:56:53.200Z,15.80
2022-09-16T20:59:23.596Z,10.30
2022-09-16T21:01:54.579Z,12.30
2022-09-16T21:04:25.366Z,10.40
2022-09-16T21:06:56.041Z,10.20
2022-09-16T21:09:27.033Z,11.60
2022-09-16T21:11:58.130Z,10.60
2022-09-16T21:14:29.017Z,11.10
2022-09-16T21:16:59.495Z,14.60
2022-09-16T21:19:31.920Z,9.50
2022-09-16T21:22:03.981Z,11.00
2022-09-16T21:24:35.019Z,10.60
2022-09-16T21:27:06.081Z,10.40
2022-09-16T21:29:36.588Z,7.60
2022-09-16T21:32:09.984Z,9.30
2022-09-16T21:34:40.612Z,10.10
2022-09-16T21:37:12.065Z,12.20
2022-09-16T21:39:42.394Z,10.80
2022-09-16T21:42:12.951Z,9.90
2022-09-16T21:44:43.310Z,11.00
2022-09-16T21:47:13.995Z,12.50
2022-09-16T21:49:44.907Z,11.90
2022-09-16T21:52:15.443Z,12.90
2022-09-16T21:54:45.861Z,13.10
2022-09-16T21:57:16.703Z,10.40
2022-09-16T21:59:47.022Z,11.60
2022-09-16T22:02:17.713Z,10.90
2022-09-16T22:04:48.287Z,10.30
2022-09-16T22:07:18.713Z,12.70
2022-09-16T22:09:49.478Z,10.60
2022-09-16T22:12:20.123Z,11.60
2022-09-16T22:14:50.465Z,11.70
2022-09-16T22:17:22.000Z,10.40
2022-09-16T22:19:53.293Z,10.30
2022-09-16T22:22:23.952Z,10.80
2022-09-16T22:24:54.668Z,13.00
2022-09-16T22:27:25.452Z,11.20
2022-09-16T22:29:56.542Z,10.30
2022-09-16T22:32:28.329Z,10.90
2022-09-16T22:34:59.644Z,13.10
2022-09-16T22:37:30.166Z,10.30
2022-09-16T22:40:00.835Z,15.20
2022-09-16T22:42:31.430Z,12.30
2022-09-16T22:45:02.367Z,11.40
2022-09-16T22:47:33.102Z,13.50
2022-09-16T22:50:03.675Z,11.30
2022-09-16T22:52:35.287Z,12.60
2022-09-16T22:55:08.332Z,12.70
2022-09-16T22:57:38.697Z,13.60
2022-09-16T23:00:10.285Z,10.90
2022-09-16T23:02:40.663Z,15.20
2022-09-16T23:05:11.281Z,12.80
2022-09-16T23:07:41.975Z,11.20
2022-09-16T23:10:12.828Z,9.70
2022-09-16T23:12:43.402Z,12.50
2022-09-16T23:15:14.368Z,11.20
2022-09-16T23:17:44.660Z,13.10
2022-09-16T23:20:15.568Z,11.20
2022-09-16T23:22:46.440Z,12.70
2022-09-16T23:25:17.483Z,10.90
2022-09-16T23:27:48.718Z,10.50
2022-09-16T23:30:19.979Z,13.70
2022-09-16T23:32:50.490Z,9.40
2022-09-16T23:35:21.668Z,12.50
2022-09-16T23:37:52.167Z,12.10
2022-09-16T23:40:22.776Z,11.20
2022-09-16T23:42:56.088Z,9.70
2022-09-16T23:45:26.570Z,10.00
2022-09-16T23:47:57.041Z,10.80
2022-09-16T23:50:27.983Z,12.10
2022-09-16T23:52:59.325Z,10.30
2022-09-16T23:55:31.389Z,11.80
2022-09-16T23:58:01.669Z,10.80
